createdAt,value
2019-06-01T00:00:23.896Z,13.62
2019-06-01T00:02:57.435Z,13.51
2019-06-01T00:05:28.696Z,13.51
2019-06-01T00:08:00.695Z,13.42
2019-06-01T00:10:31.805Z,13.44
2019-06-01T00:13:03.584Z,13.45
2019-06-01T00:15:34.651Z,13.38
2019-06-01T00:18:05.867Z,13.43
2019-06-01T00:20:36.768Z,13.49
2019-06-01T00:23:07.967Z,13.47
2019-06-01T00:25:40.429Z,13.47
2019-06-01T00:28:11.513Z,13.44
2019-06-01T00:30:43.798Z,13.52
2019-06-01T00:33:15.097Z,13.55
2019-06-01T00:35:47.463Z,13.52
2019-06-01T00:38:18.996Z,13.41
2019-06-01T00:40:50.441Z,13.37
2019-06-01T00:43:21.860Z,13.41
2019-06-01T00:45:53.252Z,13.43
2019-06-01T00:48:24.393Z,13.38
2019-06-01T00:50:55.907Z,13.49
2019-06-01T00:53:27.252Z,13.54
2019-06-01T00:55:58.603Z,13.47
2019-06-01T00:58:29.585Z,13.52
2019-06-01T01:01:00.717Z,13.44
2019-06-01T01:03:32.035Z,13.50
2019-06-01T01:06:03.325Z,13.57
2019-06-01T01:08:34.404Z,13.52
2019-06-01T01:11:05.518Z,13.59
2019-06-01T01:13:36.814Z,13.66
2019-06-01T01:16:08.205Z,13.69
2019-06-01T01:18:39.116Z,13.81
2019-06-01T01:21:10.097Z,13.78
2019-06-01T01:23:40.948Z,13.85
2019-06-01T01:26:12.244Z,13.91
2019-06-01T01:28:43.274Z,13.90
2019-06-01T01:31:14.598Z,13.97
2019-06-01T01:33:45.802Z,13.83
2019-06-01T01:36:17.131Z,13.82
2019-06-01T01:38:48.417Z,13.84
2019-06-01T01:41:19.657Z,13.86
2019-06-01T01:43:50.776Z,13.92
2019-06-01T01:46:22.106Z,13.87
2019-06-01T01:48:54.209Z,13.87
2019-06-01T01:51:25.354Z,13.84
2019-06-01T01:53:56.711Z,13.88
2019-06-01T01:56:27.945Z,13.89
2019-06-01T01:58:59.105Z,13.88
2019-06-01T02:01:30.300Z,13.97
2019-06-01T02:04:01.526Z,14.00
2019-06-01T02:06:32.596Z,13.90
2019-06-01T02:09:05.593Z,13.78
2019-06-01T02:11:37.757Z,13.77
2019-06-01T02:14:09.361Z,13.85
2019-06-01T02:16:40.218Z,13.76
2019-06-01T02:19:11.418Z,13.85
2019-06-01T02:21:42.606Z,13.79
2019-06-01T02:24:13.770Z,13.89
2019-06-01T02:26:44.868Z,13.85
2019-06-01T02:29:16.203Z,13.90
2019-06-01T02:31:47.214Z,13.90
2019-06-01T02:34:18.554Z,13.87
2019-06-01T02:36:49.732Z,13.92
2019-06-01T02:39:21.069Z,13.97
2019-06-01T02:41:52.258Z,13.96
2019-06-01T02:44:23.399Z,13.97
2019-06-01T02:46:55.392Z,13.96
2019-06-01T02:49:26.700Z,14.09
2019-06-01T02:51:57.687Z,14.08
2019-06-01T02:54:28.793Z,14.01
2019-06-01T02:57:00.240Z,14.02
2019-06-01T02:59:31.253Z,13.94
2019-06-01T03:02:08.972Z,13.98
2019-06-01T03:04:35.365Z,13.93
2019-06-01T03:07:08.788Z,14.00
2019-06-01T03:09:41.443Z,13.95
2019-06-01T03:12:15.652Z,13.97
2019-06-01T03:14:49.391Z,14.02
2019-06-01T03:17:24.181Z,13.88
2019-06-01T03:19:57.602Z,13.88
2019-06-01T03:22:30.051Z,13.90
2019-06-01T03:25:03.884Z,13.83
2019-06-01T03:27:36.854Z,13.83
2019-06-01T03:30:14.595Z,13.78
2019-06-01T03:32:44.002Z,13.74
2019-06-01T03:35:16.226Z,13.79
2019-06-01T03:37:47.311Z,13.79
2019-06-01T03:40:23.711Z,13.86
2019-06-01T03:42:51.581Z,14.01
2019-06-01T03:45:22.835Z,14.03
2019-06-01T03:47:53.855Z,14.12
2019-06-01T03:50:25.240Z,14.19
2019-06-01T03:52:56.216Z,14.21
2019-06-01T03:55:27.448Z,14.21
2019-06-01T03:57:58.521Z,14.23
2019-06-01T04:00:29.585Z,14.32
2019-06-01T04:03:00.865Z,14.39
2019-06-01T04:05:31.891Z,14.38
2019-06-01T04:08:03.479Z,14.46
2019-06-01T04:10:34.720Z,14.53
2019-06-01T04:13:05.799Z,14.52
2019-06-01T04:15:36.976Z,14.58
2019-06-01T04:18:08.415Z,14.60
2019-06-01T04:20:39.533Z,14.60
2019-06-01T04:23:10.464Z,14.71
2019-06-01T04:25:42.490Z,14.52
2019-06-01T04:28:13.602Z,14.65
2019-06-01T04:30:45.100Z,14.65
2019-06-01T04:33:16.396Z,14.82
2019-06-01T04:35:48.022Z,14.79
2019-06-01T04:38:19.154Z,14.79
2019-06-01T04:40:50.193Z,14.72
2019-06-01T04:43:21.401Z,14.99
2019-06-01T04:45:52.530Z,14.99
2019-06-01T04:48:23.401Z,15.03
2019-06-01T04:50:54.397Z,15.03
2019-06-01T04:53:25.551Z,15.07
2019-06-01T04:55:56.702Z,15.07
2019-06-01T04:58:27.860Z,15.00
2019-06-01T05:00:59.219Z,15.34
2019-06-01T05:03:30.288Z,15.34
2019-06-01T05:06:01.462Z,15.27
2019-06-01T05:08:32.746Z,15.27
2019-06-01T05:11:06.590Z,15.35
2019-06-01T05:13:36.487Z,15.39
2019-06-01T05:16:07.888Z,15.39
2019-06-01T05:18:39.143Z,15.36
2019-06-01T05:21:10.470Z,15.26
2019-06-01T05:23:41.509Z,15.26
2019-06-01T05:26:13.186Z,15.33
2019-06-01T05:28:44.606Z,15.29
2019-06-01T05:31:24.205Z,15.28
2019-06-01T05:33:48.943Z,15.37
2019-06-01T05:36:20.045Z,15.37
2019-06-01T05:38:51.036Z,15.36
2019-06-01T05:41:22.268Z,15.36
2019-06-01T05:43:53.241Z,15.77
2019-06-01T05:46:24.400Z,15.78
2019-06-01T05:48:55.445Z,15.78
2019-06-01T05:51:27.470Z,15.98
2019-06-01T05:53:58.333Z,15.98
2019-06-01T05:56:29.256Z,16.33
2019-06-01T05:59:00.043Z,16.52
2019-06-01T06:01:31.027Z,16.64
2019-06-01T06:04:02.186Z,16.43
2019-06-01T06:06:33.044Z,16.42
2019-06-01T06:09:05.060Z,16.30
2019-06-01T06:11:36.323Z,16.30
2019-06-01T06:14:08.775Z,16.40
2019-06-01T06:16:40.054Z,16.37
2019-06-01T06:19:12.528Z,16.50
2019-06-01T06:21:44.424Z,16.60
2019-06-01T06:24:16.386Z,16.72
2019-06-01T06:26:47.705Z,16.71
2019-06-01T06:29:19.015Z,16.71
2019-06-01T06:31:50.044Z,16.96
2019-06-01T06:34:21.664Z,17.24
2019-06-01T06:36:53.812Z,17.46
2019-06-01T06:39:24.917Z,17.60
2019-06-01T06:41:56.249Z,17.53
2019-06-01T06:44:27.327Z,17.53
2019-06-01T06:46:58.364Z,17.59
2019-06-01T06:49:29.403Z,17.56
2019-06-01T06:52:00.628Z,17.40
2019-06-01T06:54:31.990Z,17.64
2019-06-01T06:57:03.437Z,18.91
2019-06-01T06:59:34.347Z,19.48
2019-06-01T07:02:05.647Z,19.15
2019-06-01T07:04:37.494Z,18.87
2019-06-01T07:07:08.907Z,18.69
2019-06-01T07:09:41.596Z,18.42
2019-06-01T07:12:12.519Z,18.25
2019-06-01T07:14:43.815Z,18.26
2019-06-01T07:17:15.953Z,18.17
2019-06-01T07:19:49.367Z,18.14
2019-06-01T07:22:21.576Z,18.58
2019-06-01T07:24:55.836Z,19.51
2019-06-01T07:27:32.848Z,19.69
2019-06-01T07:30:49.878Z,19.70
2019-06-01T07:33:26.442Z,19.13
2019-06-01T07:36:01.610Z,19.43
2019-06-01T07:38:49.125Z,19.81
2019-06-01T07:42:11.910Z,20.06
2019-06-01T07:44:52.303Z,20.57
2019-06-01T07:47:27.509Z,21.66
2019-06-01T09:30:07.092Z,23.98
2019-06-01T09:32:38.084Z,23.81
2019-06-01T09:35:09.463Z,24.26
2019-06-01T09:37:40.726Z,23.97
2019-06-01T09:40:29.454Z,23.32
2019-06-01T09:43:00.315Z,23.89
2019-06-01T09:45:32.824Z,24.40
2019-06-01T09:48:04.635Z,24.63
2019-06-01T09:50:35.567Z,24.09
2019-06-01T09:53:06.516Z,24.31
2019-06-01T09:55:38.418Z,25.15
2019-06-01T09:58:09.378Z,25.48
2019-06-01T10:00:43.570Z,25.44
2019-06-01T10:03:13.078Z,25.11
2019-06-01T10:05:58.434Z,25.40
2019-06-01T10:08:16.900Z,24.43
2019-06-01T10:10:47.970Z,24.29
2019-06-01T10:13:18.885Z,24.81
2019-06-01T10:15:49.977Z,24.80
2019-06-01T10:18:20.853Z,25.03
2019-06-01T10:20:52.031Z,25.15
2019-06-01T10:23:22.944Z,24.65
2019-06-01T10:25:54.027Z,24.62
2019-06-01T10:28:25.276Z,24.41
2019-06-01T10:30:56.096Z,24.73
2019-06-01T10:33:27.445Z,24.10
2019-06-01T10:35:58.350Z,24.57
2019-06-01T10:38:29.361Z,24.05
2019-06-01T10:41:00.401Z,23.97
2019-06-01T10:43:33.714Z,24.84
2019-06-01T10:46:05.496Z,25.43
2019-06-01T10:48:36.343Z,26.18
2019-06-01T10:51:07.468Z,25.73
2019-06-01T10:53:38.405Z,25.99
2019-06-01T10:56:09.327Z,26.26
2019-06-01T10:58:58.789Z,26.12
2019-06-01T11:01:13.255Z,25.53
2019-06-01T11:03:44.704Z,25.26
2019-06-01T11:06:15.690Z,25.76
2019-06-01T11:08:47.807Z,26.73
2019-06-01T11:11:18.792Z,27.16
2019-06-01T11:13:49.766Z,26.39
2019-06-01T11:16:20.608Z,26.65
2019-06-01T11:18:51.526Z,26.07
2019-06-01T11:21:22.468Z,26.35
2019-06-01T11:23:53.379Z,25.79
2019-06-01T11:26:24.310Z,25.56
2019-06-01T11:28:55.407Z,25.01
2019-06-01T11:31:26.177Z,24.60
2019-06-01T11:33:57.048Z,24.69
2019-06-01T11:36:27.812Z,24.60
2019-06-01T11:38:58.749Z,24.74
2019-06-01T11:41:29.537Z,24.51
2019-06-01T11:44:00.490Z,24.43
2019-06-01T11:46:31.285Z,24.53
2019-06-01T11:49:02.359Z,24.24
2019-06-01T11:51:33.155Z,23.69
2019-06-01T11:54:04.468Z,23.52
2019-06-01T11:56:35.323Z,23.47
2019-06-01T11:59:06.187Z,23.60
2019-06-01T12:01:37.777Z,23.49
2019-06-01T12:04:08.731Z,23.67
2019-06-01T12:06:39.911Z,23.56
2019-06-01T12:09:11.687Z,23.71
2019-06-01T12:11:44.134Z,23.82
2019-06-01T12:14:16.409Z,24.16
2019-06-01T12:16:47.515Z,24.46
2019-06-01T12:19:19.060Z,24.09
2019-06-01T12:21:50.325Z,24.18
2019-06-01T12:24:25.524Z,24.50
2019-06-01T12:26:54.448Z,24.42
2019-06-01T12:29:25.511Z,24.58
2019-06-01T12:31:56.520Z,24.66
2019-06-01T12:34:27.684Z,23.83
2019-06-01T12:36:58.894Z,24.05
2019-06-01T12:39:30.390Z,24.21
2019-06-01T12:42:01.473Z,24.55
2019-06-01T12:44:32.356Z,24.78
2019-06-01T12:47:03.307Z,24.69
2019-06-01T12:49:34.598Z,24.27
2019-06-01T12:52:05.488Z,24.19
2019-06-01T12:54:36.525Z,24.08
2019-06-01T12:57:07.344Z,24.31
2019-06-01T12:59:38.443Z,24.23
2019-06-01T13:02:09.869Z,24.47
2019-06-01T13:04:42.651Z,24.50
2019-06-01T13:07:13.832Z,24.52
2019-06-01T13:09:46.113Z,24.30
2019-06-01T13:12:17.024Z,24.38
2019-06-01T13:14:49.250Z,24.54
2019-06-01T13:17:20.247Z,24.67
2019-06-01T13:19:51.580Z,24.44
2019-06-01T13:22:22.796Z,24.05
2019-06-01T13:24:53.773Z,24.15
2019-06-01T13:27:24.657Z,24.57
2019-06-01T13:29:55.784Z,24.64
2019-06-01T13:32:26.834Z,24.83
2019-06-01T13:34:57.873Z,25.01
2019-06-01T13:37:28.859Z,25.08
2019-06-01T13:40:00.014Z,25.41
2019-06-01T13:42:30.833Z,25.16
2019-06-01T13:45:01.675Z,25.07
2019-06-01T13:47:32.964Z,24.74
2019-06-01T13:50:06.742Z,24.32
2019-06-01T13:52:36.891Z,24.69
2019-06-01T13:55:09.314Z,24.84
2019-06-01T13:57:40.466Z,25.08
2019-06-01T14:00:15.573Z,25.28
2019-06-01T14:02:50.407Z,25.19
2019-06-01T14:05:18.483Z,25.06
2019-06-01T14:07:49.614Z,24.89
2019-06-01T14:10:21.000Z,24.76
2019-06-01T14:12:51.815Z,24.62
2019-06-01T14:15:22.697Z,24.48
2019-06-01T14:17:54.553Z,24.28
2019-06-01T14:20:25.630Z,24.16
2019-06-01T14:22:56.638Z,24.02
2019-06-01T14:25:27.561Z,24.08
2019-06-01T14:27:58.495Z,24.07
2019-06-01T14:30:29.771Z,23.95
2019-06-01T14:33:00.971Z,24.03
2019-06-01T14:35:35.721Z,24.09
2019-06-01T14:38:05.966Z,24.03
2019-06-01T14:40:36.907Z,23.87
2019-06-01T14:43:08.107Z,23.63
2019-06-01T14:45:39.245Z,23.60
2019-06-01T14:48:10.471Z,23.53
2019-06-01T14:50:41.800Z,23.68
2019-06-01T14:53:12.951Z,23.74
2019-06-01T14:55:44.259Z,23.68
2019-06-01T14:58:15.374Z,23.68
2019-06-01T15:00:46.396Z,23.51
2019-06-01T15:03:17.408Z,23.52
2019-06-01T15:05:50.174Z,23.66
2019-06-01T15:08:21.201Z,23.67
2019-06-01T15:10:53.430Z,23.68
2019-06-01T15:13:24.986Z,23.64
2019-06-01T15:15:57.652Z,23.62
2019-06-01T15:18:28.630Z,23.72
2019-06-01T15:20:59.590Z,23.65
2019-06-01T15:23:30.807Z,23.64
2019-06-01T15:26:02.923Z,23.61
2019-06-01T15:28:34.207Z,23.61
2019-06-01T15:31:05.179Z,23.66
2019-06-01T15:33:36.342Z,23.55
2019-06-01T15:36:07.679Z,23.34
2019-06-01T15:38:38.721Z,23.27
2019-06-01T15:41:09.776Z,23.21
2019-06-01T15:43:40.863Z,23.16
2019-06-01T15:46:12.450Z,23.21
2019-06-01T15:48:43.584Z,23.02
2019-06-01T15:51:14.666Z,22.90
2019-06-01T15:53:45.897Z,22.82
2019-06-01T15:56:17.203Z,22.74
2019-06-01T15:58:52.878Z,22.60
2019-06-01T16:01:21.107Z,22.68
2019-06-01T16:03:55.094Z,22.60
2019-06-01T16:06:27.414Z,22.50
2019-06-01T16:08:59.335Z,22.32
2019-06-01T16:11:31.436Z,22.26
2019-06-01T16:14:03.919Z,22.20
2019-06-01T16:16:34.992Z,22.21
2019-06-01T16:19:07.925Z,22.23
2019-06-01T16:21:39.080Z,22.27
2019-06-01T16:24:11.271Z,22.38
2019-06-01T16:26:42.437Z,22.37
2019-06-01T16:29:13.481Z,22.47
2019-06-01T16:31:44.499Z,22.52
2019-06-01T16:34:15.455Z,22.56
2019-06-01T16:36:46.676Z,22.54
2019-06-01T16:39:17.632Z,22.60
2019-06-01T16:41:48.655Z,22.48
2019-06-01T16:44:20.069Z,22.47
2019-06-01T16:46:51.216Z,22.27
2019-06-01T16:49:22.194Z,22.13
2019-06-01T16:51:59.112Z,21.98
2019-06-01T16:54:31.482Z,21.96
2019-06-01T16:57:03.014Z,21.80
2019-06-01T16:59:34.078Z,21.61
2019-06-01T17:02:06.079Z,21.63
2019-06-01T17:04:37.102Z,21.31
2019-06-01T17:07:08.794Z,21.26
2019-06-01T17:09:39.846Z,21.14
2019-06-01T17:12:10.801Z,21.08
2019-06-01T17:14:41.569Z,20.97
2019-06-01T17:17:12.510Z,21.01
2019-06-01T17:19:43.892Z,20.98
2019-06-01T17:22:15.225Z,20.80
2019-06-01T17:24:46.347Z,20.85
2019-06-01T17:27:17.267Z,20.77
2019-06-01T17:29:48.179Z,20.71
2019-06-01T17:32:24.495Z,20.74
2019-06-01T17:34:52.687Z,20.61
2019-06-01T17:37:23.496Z,20.58
2019-06-01T17:39:54.404Z,20.49
2019-06-01T17:42:25.299Z,20.48
2019-06-01T17:44:56.146Z,20.40
2019-06-01T17:47:28.452Z,20.49
2019-06-01T17:49:59.312Z,20.31
2019-06-01T17:52:30.280Z,20.35
2019-06-01T17:55:01.133Z,20.21
2019-06-01T17:57:33.281Z,20.17
2019-06-01T18:00:05.663Z,20.18
2019-06-01T18:02:38.262Z,20.12
2019-06-01T18:05:10.125Z,20.09
2019-06-01T18:07:41.453Z,20.14
2019-06-01T18:10:12.577Z,20.10
2019-06-01T18:12:43.574Z,20.17
2019-06-01T18:15:15.318Z,20.08
2019-06-01T18:17:46.391Z,20.16
2019-06-01T18:20:18.012Z,20.06
2019-06-01T18:22:49.169Z,20.11
2019-06-01T18:25:23.012Z,19.98
2019-06-01T18:27:54.412Z,20.17
2019-06-01T18:30:26.242Z,20.07
2019-06-01T18:32:58.243Z,19.98
2019-06-01T18:35:29.416Z,19.95
2019-06-01T18:38:00.710Z,19.97
2019-06-01T18:40:31.985Z,19.83
2019-06-01T18:43:07.850Z,19.83
2019-06-01T18:45:39.482Z,19.78
2019-06-01T18:48:12.269Z,19.83
2019-06-01T18:50:43.638Z,19.78
2019-06-01T18:53:15.034Z,19.64
2019-06-01T18:55:46.129Z,19.70
2019-06-01T18:58:17.296Z,19.75
2019-06-01T19:00:48.583Z,19.60
2019-06-01T19:03:20.868Z,19.51
2019-06-01T19:05:52.098Z,19.52
2019-06-01T19:08:25.056Z,19.49
2019-06-01T19:10:58.639Z,19.37
2019-06-01T19:13:29.993Z,19.56
2019-06-01T19:16:00.957Z,19.51
2019-06-01T19:18:31.947Z,19.45
2019-06-01T19:21:03.081Z,19.29
2019-06-01T19:23:34.048Z,19.13
2019-06-01T19:26:09.133Z,19.14
2019-06-01T19:28:37.850Z,19.16
2019-06-01T19:31:08.842Z,19.22
2019-06-01T19:33:40.214Z,19.28
2019-06-01T19:36:11.180Z,19.31
2019-06-01T19:38:43.880Z,19.32
2019-06-01T19:41:15.526Z,19.33
2019-06-01T19:43:46.600Z,19.21
2019-06-01T19:46:18.798Z,19.21
2019-06-01T19:48:50.035Z,19.13
2019-06-01T19:51:21.296Z,19.10
2019-06-01T19:53:52.226Z,19.13
2019-06-01T19:56:24.083Z,19.04
2019-06-01T19:58:54.942Z,19.03
2019-06-01T20:01:26.205Z,19.10
2019-06-01T20:03:57.062Z,19.00
2019-06-01T20:06:29.309Z,18.87
2019-06-01T20:09:01.220Z,18.75
2019-06-01T20:11:33.958Z,18.84
2019-06-01T20:14:05.311Z,18.80
2019-06-01T20:16:37.131Z,18.85
2019-06-01T20:19:08.283Z,18.85
2019-06-01T20:21:39.417Z,18.86
2019-06-01T20:24:11.094Z,18.85
2019-06-01T20:26:48.946Z,18.90
2019-06-01T20:29:17.577Z,18.78
2019-06-01T20:31:48.795Z,18.88
2019-06-01T20:34:20.178Z,18.90
2019-06-01T20:36:51.304Z,18.81
2019-06-01T20:39:22.574Z,18.88
2019-06-01T20:41:53.903Z,18.86
2019-06-01T20:44:25.409Z,18.82
2019-06-01T20:46:56.649Z,18.85
2019-06-01T20:49:27.987Z,18.74
2019-06-01T20:51:59.057Z,18.85
2019-06-01T20:54:30.215Z,18.83
2019-06-01T20:57:01.402Z,18.76
2019-06-01T20:59:32.481Z,18.72
2019-06-01T21:02:03.569Z,18.73
2019-06-01T21:04:34.748Z,18.52
2019-06-01T21:07:06.040Z,18.39
2019-06-01T21:09:37.060Z,18.37
2019-06-01T21:12:09.831Z,18.39
2019-06-01T21:14:41.157Z,18.33
2019-06-01T21:17:12.634Z,18.48
2019-06-01T21:19:44.111Z,18.42
2019-06-01T21:22:16.449Z,18.36
2019-06-01T21:24:47.723Z,18.43
2019-06-01T21:27:19.024Z,18.46
2019-06-01T21:29:50.550Z,18.47
2019-06-01T21:32:23.670Z,18.49
2019-06-01T21:34:55.893Z,18.49
2019-06-01T21:37:27.305Z,18.60
2019-06-01T21:39:58.472Z,18.53
2019-06-01T21:42:29.806Z,18.45
2019-06-01T21:45:01.150Z,18.49
2019-06-01T21:47:32.237Z,18.51
2019-06-01T21:50:03.506Z,18.44
2019-06-01T21:52:34.764Z,18.48
2019-06-01T21:55:06.492Z,18.19
2019-06-01T21:57:37.607Z,17.82
2019-06-01T22:00:10.522Z,17.54
2019-06-01T22:02:43.390Z,17.23
2019-06-01T22:05:16.898Z,17.23
2019-06-01T22:07:48.698Z,17.03
2019-06-01T22:10:30.366Z,16.90
2019-06-01T22:13:18.190Z,16.76
2019-06-01T22:15:41.858Z,16.70
2019-06-01T22:18:15.475Z,16.64
2019-06-01T22:20:53.973Z,16.53
2019-06-01T22:23:26.005Z,16.38
2019-06-01T22:25:57.197Z,16.30
2019-06-01T22:28:28.715Z,16.25
2019-06-01T22:30:59.907Z,16.19
2019-06-01T22:33:31.611Z,16.13
2019-06-01T22:36:02.595Z,16.12
2019-06-01T22:38:34.118Z,16.12
2019-06-01T22:41:05.346Z,16.20
2019-06-01T22:43:45.765Z,16.20
2019-06-01T22:46:09.772Z,16.15
2019-06-01T22:48:41.095Z,16.16
2019-06-01T22:51:12.150Z,16.16
2019-06-01T22:53:43.080Z,16.33
2019-06-01T22:56:14.324Z,16.33
2019-06-01T22:58:45.488Z,16.27
2019-06-01T23:01:17.719Z,16.25
2019-06-01T23:03:48.860Z,16.20
2019-06-01T23:06:20.849Z,16.20
2019-06-01T23:08:51.915Z,16.28
2019-06-01T23:11:23.240Z,16.28
2019-06-01T23:13:54.270Z,16.39
2019-06-01T23:16:25.672Z,16.40
2019-06-01T23:18:56.784Z,16.40
2019-06-01T23:21:27.904Z,16.46
2019-06-01T23:23:59.232Z,16.40
2019-06-01T23:26:30.427Z,16.40
2019-06-01T23:29:01.514Z,16.46
2019-06-01T23:31:32.651Z,16.35
2019-06-01T23:34:04.835Z,16.34
2019-06-01T23:36:35.866Z,16.38
2019-06-01T23:39:07.503Z,16.41
2019-06-01T23:41:38.448Z,16.37
2019-06-01T23:44:12.102Z,16.32
2019-06-01T23:46:42.157Z,16.32
2019-06-01T23:49:13.231Z,16.36
2019-06-01T23:51:44.207Z,16.43
2019-06-01T23:54:15.116Z,16.42
2019-06-01T23:56:46.026Z,16.32
2019-06-01T23:59:16.957Z,16.36
